Estación Meteorológica Peña el Pijo (Robertgarden) [ 11/12/18 21:24:02 CET ]

Fecha Hora Presion(HPa) Temp (°C) Humedad % Rocio (°C) Viento ( m/s) Direccion Lluvia 1Hora(mm) Lluvia 24H(mm) LLuvia Total(mm)
2018-May-14 01:01:43 1011.000 4.6 64 -1.7         215.48
2018-May-14 02:01:46 1010.900 4.3 66 -1.5         215.48
2018-May-14 03:01:44 1010.200 3.9 67 -1.7         215.48
2018-May-14 04:01:42 1009.800 4.1 66 -1.7         215.48
2018-May-14 05:05:14 1009.700 3.8 66 -2.0         215.48
2018-May-14 06:01:57 1009.700 3.1 67 -2.4         215.48
2018-May-14 07:01:41 1009.600 2.9 69 -2.2         215.48
2018-May-14 08:01:37 1009.800 4.8 70 -0.2         215.48
2018-May-14 09:01:36 1009.600 10.7 58 2.7         215.48
2018-May-14 10:01:50 1009.500 14.3 46 2.8         215.48
2018-May-14 11:01:46 1009.000 17.4 37 2.5         215.48
2018-May-14 12:01:36 1008.600 19.1 35 3.2         215.48
2018-May-14 13:01:53 1008.200 20.3 32 3.0         215.48
2018-May-14 14:01:49 1008.300 18.4 37 3.4         215.48
2018-May-14 15:01:51 1007.700 20.3 34 3.8         215.48
2018-May-14 16:01:46 1007.300 22.1 33 5.0 1.3 NNW     215.48
2018-May-14 17:01:44 1007.300 21.6 32 4.2         215.48
2018-May-14 18:01:40 1007.600 19.4 38 4.6         215.48
2018-May-14 19:01:46 1007.400 19.1 37 4.0         215.48
2018-May-14 20:01:34 1007.700 17.9 37 2.9         215.48
2018-May-14 21:01:43 1008.100 14.9 43 2.4         215.48
2018-May-14 22:01:28 1008.800 11.5 51 1.7         215.48
2018-May-14 23:01:56 1009.400 9.1 62 2.2         215.48

Temperatura Máxima:22°    Temperatura Mínima:
Presión Máxima:1011.000 Hpa    Presión Mínima:1007.300 Hpa


Volver